createdAt,value
2019-02-08T00:00:18.017Z,7.71
2019-02-08T00:01:18.006Z,7.63
2019-02-08T00:02:39.017Z,7.59
2019-02-08T00:03:18.011Z,7.53
2019-02-08T00:04:18.043Z,7.52
2019-02-08T00:05:18.102Z,7.52
2019-02-08T00:06:18.050Z,7.37
2019-02-08T00:07:18.070Z,7.31
2019-02-08T00:08:39.092Z,7.31
2019-02-08T00:09:18.093Z,7.24
2019-02-08T00:10:18.122Z,7.07
2019-02-08T00:11:18.118Z,6.94
2019-02-08T00:12:19.733Z,7.01
2019-02-08T00:13:18.150Z,7.02
2019-02-08T00:14:39.171Z,6.97
2019-02-08T00:15:18.168Z,6.97
2019-02-08T00:16:18.184Z,6.98
2019-02-08T00:17:18.201Z,6.95
2019-02-08T00:18:18.209Z,6.90
2019-02-08T00:19:18.215Z,6.84
2019-02-08T00:20:39.271Z,6.89
2019-02-08T00:21:18.255Z,6.87
2019-02-08T00:22:18.260Z,6.80
2019-02-08T00:23:26.331Z,6.76
2019-02-08T00:24:18.286Z,6.65
2019-02-08T00:25:18.326Z,6.76
2019-02-08T00:26:39.320Z,6.77
2019-02-08T00:27:18.325Z,6.72
2019-02-08T00:28:18.366Z,6.54
2019-02-08T00:29:18.343Z,6.63
2019-02-08T00:30:18.380Z,6.65
2019-02-08T00:31:18.400Z,6.72
2019-02-08T00:32:39.486Z,6.73
2019-02-08T00:33:18.482Z,6.86
2019-02-08T00:34:18.425Z,6.86
2019-02-08T00:35:18.419Z,6.87
2019-02-08T00:36:18.438Z,6.90
2019-02-08T00:37:18.446Z,6.83
2019-02-08T00:38:39.521Z,6.86
2019-02-08T00:39:18.581Z,6.86
2019-02-08T00:40:18.485Z,6.89
2019-02-08T00:41:18.522Z,6.80
2019-02-08T00:42:18.518Z,6.81
2019-02-08T00:43:18.524Z,6.87
2019-02-08T00:44:39.545Z,6.79
2019-02-08T00:45:18.602Z,6.79
2019-02-08T00:46:18.598Z,6.65
2019-02-08T00:47:18.569Z,6.71
2019-02-08T00:48:18.589Z,6.73
2019-02-08T00:49:18.598Z,6.66
2019-02-08T00:50:39.627Z,6.62
2019-02-08T00:51:18.630Z,6.53
2019-02-08T00:52:18.737Z,6.56
2019-02-08T00:53:18.745Z,6.61
2019-02-08T00:54:18.666Z,6.51
2019-02-08T00:55:18.682Z,6.54
2019-02-08T00:56:39.703Z,6.48
2019-02-08T00:57:18.703Z,6.46
2019-02-08T00:58:18.792Z,6.43
2019-02-08T00:59:18.777Z,6.44
2019-02-08T01:00:18.735Z,6.38
2019-02-08T01:01:18.762Z,6.46
2019-02-08T01:02:39.813Z,6.43
2019-02-08T01:03:18.767Z,6.36
2019-02-08T01:04:18.909Z,6.40
2019-02-08T01:05:18.798Z,6.41
2019-02-08T01:06:18.826Z,6.41
2019-02-08T01:07:18.833Z,6.36
2019-02-08T01:08:39.856Z,6.33
2019-02-08T01:09:18.849Z,6.40
2019-02-08T01:10:18.866Z,6.41
2019-02-08T01:11:18.984Z,6.36
2019-02-08T01:12:18.895Z,6.50
2019-02-08T01:13:18.949Z,6.41
2019-02-08T01:14:39.922Z,6.36
2019-02-08T01:15:18.924Z,6.43
2019-02-08T01:16:18.934Z,6.41
2019-02-08T01:17:18.950Z,6.26
2019-02-08T01:18:19.080Z,6.21
2019-02-08T01:19:19.042Z,6.21
2019-02-08T01:20:39.997Z,6.25
2019-02-08T01:21:18.998Z,6.28
2019-02-08T01:22:19.008Z,6.26
2019-02-08T01:23:19.024Z,6.28
2019-02-08T01:24:19.030Z,6.19
2019-02-08T01:25:19.044Z,6.28
2019-02-08T01:26:40.076Z,6.29
2019-02-08T01:27:19.077Z,6.18
2019-02-08T01:28:19.129Z,6.22
2019-02-08T01:29:19.090Z,6.28
2019-02-08T01:30:19.151Z,6.29
2019-02-08T01:31:19.133Z,6.29
2019-02-08T01:32:40.145Z,6.36
2019-02-08T01:33:19.170Z,6.40
2019-02-08T01:34:19.159Z,6.40
2019-02-08T01:35:19.165Z,6.48
2019-02-08T01:36:19.197Z,6.51
2019-02-08T01:37:19.228Z,6.59
2019-02-08T01:38:40.220Z,6.61
2019-02-08T01:39:19.217Z,6.73
2019-02-08T01:40:19.257Z,6.73
2019-02-08T01:41:19.254Z,6.79
2019-02-08T01:42:19.250Z,6.87
2019-02-08T01:43:19.321Z,6.73
2019-02-08T01:44:40.295Z,6.73
2019-02-08T01:45:19.393Z,6.66
2019-02-08T01:46:19.305Z,6.80
2019-02-08T01:47:19.319Z,6.84
2019-02-08T01:48:19.331Z,6.83
2019-02-08T01:49:19.346Z,6.86
2019-02-08T01:50:40.376Z,6.84
2019-02-08T01:51:19.373Z,6.83
2019-02-08T01:52:19.380Z,6.86
2019-02-08T01:53:19.394Z,6.86
2019-02-08T01:54:19.400Z,6.98
2019-02-08T01:55:19.423Z,7.01
2019-02-08T01:56:40.462Z,6.94
2019-02-08T01:57:19.449Z,7.05
2019-02-08T01:58:19.547Z,7.08
2019-02-08T01:59:19.475Z,7.13
2019-02-08T02:00:19.487Z,7.08
2019-02-08T02:01:19.600Z,7.07
2019-02-08T02:02:40.565Z,7.17
2019-02-08T02:03:19.508Z,7.13
2019-02-08T02:04:19.597Z,7.12
2019-02-08T02:05:19.542Z,7.08
2019-02-08T02:06:19.568Z,7.12
2019-02-08T02:07:19.587Z,7.07
2019-02-08T02:08:40.587Z,7.19
2019-02-08T02:09:19.604Z,7.15
2019-02-08T02:10:19.620Z,7.16
2019-02-08T02:11:19.637Z,7.17
2019-02-08T02:12:19.747Z,7.16
2019-02-08T02:13:19.641Z,7.24
2019-02-08T02:14:40.681Z,7.19
2019-02-08T02:15:19.669Z,7.23
2019-02-08T02:16:19.694Z,7.19
2019-02-08T02:17:19.719Z,7.17
2019-02-08T02:18:19.711Z,7.31
2019-02-08T02:19:19.711Z,7.29
2019-02-08T02:20:40.741Z,7.29
2019-02-08T02:21:19.744Z,7.27
2019-02-08T02:22:28.944Z,7.32
2019-02-08T02:23:19.811Z,7.31
2019-02-08T02:24:19.799Z,7.34
2019-02-08T02:25:19.783Z,7.31
2019-02-08T02:26:40.817Z,7.41
2019-02-08T02:27:19.832Z,7.44
2019-02-08T02:28:19.837Z,7.37
2019-02-08T02:29:19.845Z,7.41
2019-02-08T02:30:19.893Z,7.45
2019-02-08T02:31:19.934Z,7.45
2019-02-08T02:32:40.893Z,7.49
2019-02-08T02:33:19.970Z,7.40
2019-02-08T02:34:19.903Z,7.42
2019-02-08T02:35:19.919Z,7.40
2019-02-08T02:36:20.080Z,7.42
2019-02-08T02:37:19.971Z,7.37
2019-02-08T02:38:40.981Z,7.38
2019-02-08T02:39:19.973Z,7.41
2019-02-08T02:40:19.993Z,7.31
2019-02-08T02:41:19.995Z,7.40
2019-02-08T02:42:20.007Z,7.44
2019-02-08T02:43:20.031Z,7.45
2019-02-08T02:44:41.096Z,7.44
2019-02-08T02:45:20.093Z,7.55
2019-02-08T02:46:20.074Z,7.53
2019-02-08T02:47:20.115Z,7.55
2019-02-08T02:48:20.088Z,7.55
2019-02-08T02:49:20.107Z,7.55
2019-02-08T02:50:41.186Z,7.56
2019-02-08T02:51:20.153Z,7.66
2019-02-08T02:52:20.137Z,7.59
2019-02-08T02:53:20.234Z,7.59
2019-02-08T02:54:20.159Z,7.59
2019-02-08T02:55:20.175Z,7.67
2019-02-08T02:56:41.203Z,7.63
2019-02-08T02:57:20.209Z,7.62
2019-02-08T02:58:20.207Z,7.62
2019-02-08T02:59:20.313Z,7.62
2019-02-08T03:00:20.252Z,7.79
2019-02-08T03:01:20.323Z,7.62
2019-02-08T03:02:41.279Z,7.59
2019-02-08T03:03:20.264Z,7.62
2019-02-08T03:04:20.286Z,7.59
2019-02-08T03:05:20.311Z,7.59
2019-02-08T03:06:20.318Z,7.67
2019-02-08T03:07:20.356Z,7.55
2019-02-08T03:08:41.393Z,7.62
2019-02-08T03:37:20.452Z,7.60
2019-02-08T03:38:20.434Z,7.53
2019-02-08T03:40:12.401Z,7.53
2019-02-08T03:41:12.332Z,7.62
2019-02-08T03:43:04.277Z,7.67
2019-02-08T03:44:04.277Z,7.58
2019-02-08T03:45:56.145Z,7.63
2019-02-08T03:46:56.150Z,7.72
2019-02-08T03:48:48.139Z,7.62
2019-02-08T03:49:48.057Z,7.72
2019-02-08T03:51:39.967Z,7.75
2019-02-08T03:52:39.977Z,7.84
2019-02-08T03:54:31.899Z,7.87
2019-02-08T03:55:31.893Z,7.84
2019-02-08T03:57:25.304Z,7.78
2019-02-08T03:58:25.341Z,7.85
2019-02-08T04:00:17.250Z,7.84
2019-02-08T04:01:17.231Z,7.85
2019-02-08T04:03:09.205Z,7.89
2019-02-08T04:04:09.140Z,7.87
2019-02-08T04:06:01.052Z,7.96
2019-02-08T04:07:01.055Z,7.96
2019-02-08T04:08:52.987Z,7.89
2019-02-08T04:09:52.968Z,7.93
2019-02-08T04:11:44.882Z,7.81
2019-02-08T04:12:44.891Z,7.87
2019-02-08T04:14:36.823Z,8.00
2019-02-08T04:15:36.813Z,7.92
2019-02-08T04:17:28.749Z,8.00
2019-02-08T04:18:28.729Z,8.02
2019-02-08T04:20:20.676Z,7.89
2019-02-08T04:21:20.654Z,8.00
2019-02-08T04:23:12.563Z,8.00
2019-02-08T04:24:12.567Z,7.85
2019-02-08T04:26:04.548Z,7.93
2019-02-08T04:27:04.492Z,7.96
2019-02-08T04:28:56.434Z,7.96
2019-02-08T04:29:56.427Z,7.99
2019-02-08T04:31:48.351Z,7.89
2019-02-08T04:32:48.386Z,7.89
2019-02-08T04:34:40.308Z,7.75
2019-02-08T04:35:40.303Z,7.82
2019-02-08T04:36:40.319Z,7.85
2019-02-08T04:37:40.335Z,7.82
2019-02-08T04:38:40.341Z,7.85
2019-02-08T04:39:40.359Z,7.79
2019-02-08T04:40:40.379Z,7.78
2019-02-08T04:41:40.379Z,7.72
2019-02-08T04:42:40.397Z,7.74
2019-02-08T04:43:40.407Z,7.74
2019-02-08T04:44:40.418Z,7.69
2019-02-08T04:45:40.430Z,7.69
2019-02-08T04:46:40.454Z,7.77
2019-02-08T04:47:40.457Z,7.75
2019-02-08T04:48:40.488Z,7.77
2019-02-08T04:49:40.483Z,7.77
2019-02-08T04:50:40.494Z,7.75
2019-02-08T04:51:40.508Z,7.79
2019-02-08T04:52:40.525Z,7.78
2019-02-08T04:53:40.533Z,7.82
2019-02-08T04:54:40.576Z,7.77
2019-02-08T04:55:40.558Z,7.63
2019-02-08T04:56:40.571Z,7.60
2019-02-08T04:57:40.653Z,7.62
2019-02-08T04:58:40.599Z,7.63
2019-02-08T04:59:40.613Z,7.66
2019-02-08T05:00:40.625Z,7.63
2019-02-08T05:01:40.647Z,7.63
2019-02-08T05:02:40.654Z,7.66
2019-02-08T05:03:40.688Z,7.62
2019-02-08T05:04:40.680Z,7.50
2019-02-08T05:05:40.729Z,7.58
2019-02-08T05:06:40.706Z,7.58
2019-02-08T05:07:40.715Z,7.49
2019-02-08T05:08:40.732Z,7.55
2019-02-08T05:09:42.464Z,7.49
2019-02-08T05:10:40.752Z,7.58
2019-02-08T05:11:40.766Z,7.58
2019-02-08T05:12:40.781Z,7.60
2019-02-08T05:13:40.796Z,7.55
2019-02-08T05:14:40.805Z,7.71
2019-02-08T05:15:40.819Z,7.58
2019-02-08T05:16:40.833Z,7.77
2019-02-08T05:17:40.845Z,7.72
2019-02-08T05:18:40.869Z,7.78
2019-02-08T05:19:40.878Z,7.69
2019-02-08T05:20:40.903Z,7.87
2019-02-08T05:21:40.899Z,7.75
2019-02-08T05:22:40.908Z,7.79
2019-02-08T05:23:40.919Z,7.84
2019-02-08T05:24:45.903Z,7.82
2019-02-08T05:25:40.955Z,7.78
2019-02-08T05:26:40.963Z,7.87
2019-02-08T05:27:40.973Z,7.85
2019-02-08T05:28:40.982Z,7.90
2019-02-08T05:29:41.000Z,7.87
2019-02-08T05:30:41.015Z,7.84
2019-02-08T05:31:41.025Z,7.87
2019-02-08T05:32:41.038Z,7.93
2019-02-08T05:33:41.079Z,8.02
2019-02-08T05:34:41.064Z,7.99
2019-02-08T05:35:41.127Z,8.04
2019-02-08T05:36:41.085Z,8.02
2019-02-08T05:37:41.165Z,8.08
2019-02-08T05:38:41.116Z,7.99
2019-02-08T05:39:41.130Z,8.00
2019-02-08T05:40:41.146Z,8.02
2019-02-08T05:41:41.161Z,8.07
2019-02-08T05:42:41.168Z,8.02
2019-02-08T05:43:41.180Z,8.02
2019-02-08T05:44:41.199Z,8.11
2019-02-08T05:45:41.206Z,8.10
2019-02-08T05:46:41.220Z,8.15
2019-02-08T05:47:41.252Z,8.17
2019-02-08T05:48:41.245Z,8.17
2019-02-08T05:49:41.261Z,8.17
2019-02-08T05:50:41.295Z,8.17
2019-02-08T05:51:41.291Z,8.18
2019-02-08T05:52:41.299Z,8.14
2019-02-08T05:53:41.312Z,8.22
2019-02-08T05:54:41.326Z,8.20
2019-02-08T05:55:41.342Z,8.21
2019-02-08T05:56:41.357Z,8.18
2019-02-08T05:57:41.375Z,8.25
2019-02-08T05:58:41.386Z,8.28
2019-02-08T05:59:41.389Z,8.12
2019-02-08T06:00:41.402Z,8.28
2019-02-08T06:01:41.416Z,8.29
2019-02-08T06:02:41.433Z,8.28
2019-02-08T06:03:41.441Z,8.20
2019-02-08T06:04:41.455Z,8.21
2019-02-08T06:05:41.468Z,8.28
2019-02-08T06:06:41.511Z,8.22
2019-02-08T06:07:41.495Z,8.25
2019-02-08T06:08:41.515Z,8.32
2019-02-08T06:09:41.520Z,8.22
2019-02-08T06:10:41.535Z,8.33
2019-02-08T06:11:41.557Z,8.25
2019-02-08T06:12:41.559Z,8.28
2019-02-08T06:13:41.574Z,8.22
2019-02-08T06:14:41.585Z,8.28
2019-02-08T06:15:41.605Z,8.29
2019-02-08T06:16:41.634Z,8.28
2019-02-08T06:17:41.626Z,8.26
2019-02-08T06:18:41.641Z,8.32
2019-02-08T06:19:41.670Z,8.29
2019-02-08T06:20:41.662Z,8.26
2019-02-08T06:21:41.678Z,8.28
2019-02-08T06:22:41.695Z,8.26
2019-02-08T06:23:41.706Z,8.21
2019-02-08T06:24:41.722Z,8.28
2019-02-08T06:25:41.735Z,8.26
2019-02-08T06:26:41.748Z,8.25
2019-02-08T06:27:41.759Z,8.22
2019-02-08T06:28:41.793Z,8.26
2019-02-08T06:29:41.785Z,8.33
2019-02-08T06:30:41.799Z,8.15
2019-02-08T06:31:41.810Z,8.25
2019-02-08T06:32:41.825Z,8.14
2019-02-08T06:33:41.855Z,8.30
2019-02-08T06:34:41.852Z,8.28
2019-02-08T06:35:41.898Z,8.17
2019-02-08T06:36:41.878Z,8.25
2019-02-08T06:37:44.418Z,8.28
2019-02-08T06:38:41.913Z,8.32
2019-02-08T06:39:43.136Z,8.30
2019-02-08T06:40:41.936Z,8.26
2019-02-08T06:41:41.948Z,8.30
2019-02-08T06:42:41.955Z,8.28
2019-02-08T06:43:41.982Z,8.21
2019-02-08T06:44:41.984Z,8.21
2019-02-08T06:45:42.011Z,8.28
2019-02-08T06:46:42.019Z,8.20
2019-02-08T06:47:42.026Z,8.17
2019-02-08T06:48:42.053Z,8.18
2019-02-08T06:49:42.083Z,8.10
2019-02-08T06:50:42.062Z,8.10
2019-02-08T06:51:42.095Z,7.97
2019-02-08T06:52:42.091Z,8.03
2019-02-08T06:53:42.109Z,8.07
2019-02-08T06:54:42.126Z,8.04
2019-02-08T06:55:42.124Z,8.10
2019-02-08T06:56:42.155Z,8.11
2019-02-08T06:57:42.159Z,8.12
2019-02-08T06:58:42.191Z,8.18
2019-02-08T06:59:42.205Z,8.17
2019-02-08T07:00:42.754Z,8.21
2019-02-08T07:01:42.226Z,8.25
2019-02-08T07:02:42.223Z,8.26
2019-02-08T07:03:42.237Z,8.14
2019-02-08T07:04:42.255Z,8.17
2019-02-08T07:05:42.265Z,8.21
2019-02-08T07:06:45.108Z,8.21
2019-02-08T07:07:42.394Z,8.15
2019-02-08T07:08:42.508Z,8.18
2019-02-08T07:09:42.401Z,8.12
2019-02-08T07:10:42.630Z,8.29
2019-02-08T07:11:42.391Z,8.30
2019-02-08T07:12:42.379Z,8.29
2019-02-08T07:13:42.468Z,8.21
2019-02-08T07:14:42.497Z,8.26
2019-02-08T07:15:42.411Z,8.28
2019-02-08T07:16:42.411Z,8.32
2019-02-08T07:17:42.420Z,8.36
2019-02-08T07:18:42.502Z,8.33
2019-02-08T07:19:42.490Z,8.30
2019-02-08T07:20:42.507Z,8.32
2019-02-08T07:21:42.484Z,8.47
2019-02-08T07:22:42.487Z,8.39
2019-02-08T07:23:42.500Z,8.54
2019-02-08T07:24:42.526Z,8.45
2019-02-08T07:25:42.526Z,8.37
2019-02-08T07:26:42.534Z,8.47
2019-02-08T07:27:42.650Z,8.58
2019-02-08T07:28:42.659Z,8.50
2019-02-08T07:29:42.583Z,8.54
2019-02-08T07:30:42.641Z,8.62
2019-02-08T07:31:42.616Z,8.48
2019-02-08T07:32:42.645Z,8.54
2019-02-08T07:33:42.624Z,8.57
2019-02-08T07:34:43.659Z,8.58
2019-02-08T07:35:42.677Z,8.65
2019-02-08T07:36:42.759Z,8.65
2019-02-08T07:37:42.681Z,8.65
2019-02-08T07:38:42.710Z,8.69
2019-02-08T07:39:42.780Z,8.71
2019-02-08T07:40:42.808Z,8.71
2019-02-08T07:41:42.741Z,8.72
2019-02-08T07:42:42.803Z,8.75
2019-02-08T07:43:42.846Z,8.78
2019-02-08T07:44:42.779Z,8.79
2019-02-08T07:45:42.797Z,8.81
2019-02-08T07:46:42.960Z,8.97
2019-02-08T07:47:42.877Z,8.94
2019-02-08T07:48:42.834Z,8.84
2019-02-08T07:49:42.868Z,8.93
2019-02-08T07:50:42.886Z,8.81
2019-02-08T07:51:42.991Z,8.83
2019-02-08T07:52:42.886Z,8.88
2019-02-08T07:53:42.900Z,8.94
2019-02-08T07:54:42.985Z,8.90
2019-02-08T07:55:42.954Z,8.87
2019-02-08T07:56:42.942Z,9.02
2019-02-08T07:57:43.019Z,8.94
2019-02-08T07:58:43.005Z,9.04
2019-02-08T07:59:42.998Z,9.02
2019-02-08T08:00:43.061Z,8.96
2019-02-08T08:01:43.079Z,8.99
2019-02-08T08:02:43.100Z,9.01
2019-02-08T08:03:43.035Z,8.99
2019-02-08T08:04:43.125Z,8.96
2019-02-08T08:05:43.093Z,9.12
2019-02-08T08:06:43.088Z,9.16
2019-02-08T08:07:43.160Z,9.06
2019-02-08T08:08:43.174Z,9.04
2019-02-08T08:09:43.193Z,9.01
2019-02-08T08:10:43.141Z,9.06
2019-02-08T08:11:43.191Z,9.02
2019-02-08T08:12:43.191Z,9.05
2019-02-08T08:13:43.219Z,9.12
2019-02-08T08:14:43.180Z,9.10
2019-02-08T08:15:43.197Z,8.99
2019-02-08T08:16:43.215Z,9.06
2019-02-08T08:17:43.322Z,8.99
2019-02-08T08:18:43.319Z,9.12
2019-02-08T08:19:43.317Z,9.15
2019-02-08T08:20:43.274Z,9.10
2019-02-08T08:21:43.312Z,9.20
2019-02-08T08:22:43.330Z,9.18
2019-02-08T08:23:43.308Z,9.21
2019-02-08T08:24:43.416Z,9.12
2019-02-08T08:25:43.373Z,9.20
2019-02-08T08:26:43.361Z,9.24
2019-02-08T08:27:43.408Z,9.25
2019-02-08T08:28:43.386Z,9.23
2019-02-08T08:29:43.434Z,9.15
2019-02-08T08:30:43.404Z,9.28
2019-02-08T08:31:43.429Z,9.32
2019-02-08T08:32:43.468Z,9.34
2019-02-08T08:33:43.442Z,9.46
2019-02-08T08:34:43.480Z,9.48
2019-02-08T08:35:43.534Z,9.46
2019-02-08T08:36:43.499Z,9.56
2019-02-08T08:37:43.569Z,9.58
2019-02-08T08:38:43.540Z,9.71
2019-02-08T08:39:43.586Z,9.64
2019-02-08T08:40:43.605Z,9.68
2019-02-08T08:41:43.553Z,9.67
2019-02-08T08:42:43.596Z,9.58
2019-02-08T08:43:43.588Z,9.60
2019-02-08T08:44:43.594Z,9.66
2019-02-08T08:45:43.604Z,9.71
2019-02-08T08:46:43.613Z,9.75
2019-02-08T08:47:43.632Z,9.76
2019-02-08T08:48:43.644Z,9.71
2019-02-08T08:49:43.670Z,9.76
2019-02-08T08:50:43.676Z,9.71
2019-02-08T08:51:43.700Z,9.76
2019-02-08T08:52:43.713Z,9.73
2019-02-08T08:53:43.995Z,9.81
2019-02-08T08:54:43.820Z,9.82
2019-02-08T08:55:43.749Z,9.85
2019-02-08T08:56:43.757Z,9.88
2019-02-08T08:57:43.770Z,9.81
2019-02-08T08:58:43.785Z,9.85
2019-02-08T08:59:43.800Z,9.85
2019-02-08T09:00:43.814Z,9.89
2019-02-08T09:01:43.830Z,9.86
2019-02-08T09:02:43.843Z,9.91
2019-02-08T09:03:43.942Z,9.91
2019-02-08T09:04:43.874Z,9.93
2019-02-08T09:05:43.885Z,9.97
2019-02-08T09:06:43.898Z,9.91
2019-02-08T09:07:43.921Z,9.96
2019-02-08T09:08:43.926Z,9.94
2019-02-08T09:09:43.953Z,9.96
2019-02-08T09:10:43.955Z,9.97
2019-02-08T09:11:43.970Z,10.06
2019-02-08T09:12:43.987Z,10.06
2019-02-08T09:13:44.012Z,10.21
2019-02-08T09:14:44.099Z,10.17
2019-02-08T09:15:45.269Z,10.21
2019-02-08T09:16:44.106Z,10.32
2019-02-08T09:17:44.070Z,10.33
2019-02-08T09:18:44.126Z,10.32
2019-02-08T09:19:44.166Z,10.34
2019-02-08T09:20:44.158Z,10.33
2019-02-08T09:21:44.208Z,10.37
2019-02-08T09:22:44.131Z,10.52
2019-02-08T09:23:44.144Z,10.39
2019-02-08T09:24:44.160Z,10.65
2019-02-08T09:25:49.721Z,10.62
2019-02-08T09:26:44.192Z,10.63
2019-02-08T09:27:44.197Z,10.58
2019-02-08T09:28:44.219Z,10.52
2019-02-08T09:29:44.245Z,10.46
2019-02-08T09:30:44.287Z,10.43
2019-02-08T09:31:44.283Z,10.44
2019-02-08T09:32:44.270Z,10.47
2019-02-08T09:33:44.294Z,10.51
2019-02-08T09:34:44.300Z,10.53
2019-02-08T09:35:44.329Z,10.51
2019-02-08T09:36:47.511Z,10.60
2019-02-08T09:37:44.364Z,10.63
2019-02-08T09:38:44.358Z,10.66
2019-02-08T09:39:44.379Z,10.63
2019-02-08T09:40:44.396Z,10.62
2019-02-08T09:41:44.401Z,10.66
2019-02-08T09:42:44.419Z,10.81
2019-02-08T09:43:44.433Z,10.81
2019-02-08T09:44:44.458Z,10.77
2019-02-08T09:45:44.471Z,10.68
2019-02-08T09:46:44.484Z,10.76
2019-02-08T09:47:44.499Z,10.83
2019-02-08T09:48:44.520Z,10.89
2019-02-08T09:49:44.536Z,10.89
2019-02-08T09:50:44.543Z,10.92
2019-02-08T09:51:47.425Z,10.84
2019-02-08T09:52:44.565Z,10.91
2019-02-08T09:53:44.583Z,10.91
2019-02-08T09:54:44.600Z,10.88
2019-02-08T09:55:44.613Z,10.88
2019-02-08T09:56:44.633Z,10.86
2019-02-08T09:57:44.649Z,10.84
2019-02-08T09:58:44.656Z,10.91
2019-02-08T09:59:44.671Z,10.84
2019-02-08T10:00:44.705Z,10.98
2019-02-08T10:01:44.701Z,10.99
2019-02-08T10:02:44.717Z,11.01
2019-02-08T10:03:44.731Z,11.02
2019-02-08T10:04:44.749Z,11.06
2019-02-08T10:05:44.759Z,11.09
2019-02-08T10:06:44.794Z,11.11
2019-02-08T10:07:44.794Z,10.99
2019-02-08T10:08:44.803Z,10.84
2019-02-08T10:09:44.817Z,10.89
2019-02-08T10:10:44.852Z,10.91
2019-02-08T10:11:44.851Z,10.94
2019-02-08T10:12:44.867Z,11.01
2019-02-08T10:13:44.880Z,11.06
2019-02-08T10:14:44.896Z,11.06
2019-02-08T10:15:44.911Z,11.06
2019-02-08T10:16:44.926Z,11.07
2019-02-08T10:17:44.950Z,11.16
2019-02-08T10:18:44.958Z,11.29
2019-02-08T10:19:44.971Z,11.28
2019-02-08T10:20:44.984Z,11.11
2019-02-08T10:21:45.000Z,11.21
2019-02-08T10:22:45.021Z,11.25
2019-02-08T10:23:45.039Z,11.44
2019-02-08T10:24:45.047Z,11.47
2019-02-08T10:25:45.070Z,11.46
2019-02-08T10:26:45.077Z,11.43
2019-02-08T10:27:45.108Z,11.39
2019-02-08T10:28:45.107Z,11.47
2019-02-08T10:29:45.121Z,11.35
2019-02-08T10:30:45.143Z,11.41
2019-02-08T10:31:45.156Z,11.39
2019-02-08T10:32:45.164Z,11.39
2019-02-08T10:33:45.183Z,11.38
2019-02-08T10:34:45.202Z,11.41
2019-02-08T10:35:45.213Z,11.46
2019-02-08T10:36:45.234Z,11.53
2019-02-08T10:37:45.248Z,11.49
2019-02-08T10:38:45.305Z,11.53
2019-02-08T10:39:45.274Z,11.54
2019-02-08T10:40:45.288Z,11.49
2019-02-08T10:41:45.303Z,11.53
2019-02-08T10:42:45.320Z,11.47
2019-02-08T10:43:45.336Z,11.53
2019-02-08T10:44:45.348Z,11.56
2019-02-08T10:45:45.365Z,11.62
2019-02-08T10:46:45.381Z,11.59
2019-02-08T10:47:45.398Z,11.67
2019-02-08T10:48:45.416Z,11.77
2019-02-08T10:49:45.428Z,11.67
2019-02-08T10:50:45.443Z,11.75
2019-02-08T10:51:45.471Z,11.87
2019-02-08T10:52:45.471Z,11.77
2019-02-08T10:53:52.843Z,11.82
2019-02-08T10:54:45.509Z,11.86
2019-02-08T10:55:45.518Z,11.83
2019-02-08T10:56:45.568Z,11.86
2019-02-08T10:57:45.547Z,11.97
2019-02-08T10:58:45.564Z,11.99
2019-02-08T10:59:45.581Z,12.06
2019-02-08T11:01:45.642Z,12.16
2019-02-08T11:02:45.654Z,12.23
2019-02-08T11:03:45.687Z,12.20
2019-02-08T11:04:46.379Z,12.16
2019-02-08T11:05:45.712Z,12.12
2019-02-08T11:06:45.716Z,12.06
2019-02-08T11:08:06.758Z,12.13
2019-02-08T11:08:45.751Z,12.11
2019-02-08T11:09:45.764Z,12.08
2019-02-08T11:10:45.794Z,12.05
2019-02-08T11:11:45.800Z,12.04
2019-02-08T11:12:45.812Z,11.99
2019-02-08T11:14:06.851Z,11.97
2019-02-08T11:14:45.856Z,11.99
2019-02-08T11:15:45.870Z,12.09
2019-02-08T11:16:45.878Z,12.19
2019-02-08T11:17:45.893Z,12.23
2019-02-08T11:18:45.913Z,12.29
2019-02-08T11:20:06.934Z,12.39
2019-02-08T11:20:46.041Z,12.34
2019-02-08T11:21:45.953Z,12.51
2019-02-08T11:22:45.971Z,12.41
2019-02-08T11:23:45.993Z,12.45
2019-02-08T11:24:46.007Z,12.41
2019-02-08T11:26:07.038Z,12.41
2019-02-08T11:26:46.134Z,12.33
2019-02-08T11:27:46.059Z,12.38
2019-02-08T11:28:46.064Z,12.31
2019-02-08T11:29:46.086Z,12.37
2019-02-08T11:30:46.106Z,12.31
2019-02-08T11:32:07.136Z,12.30
2019-02-08T11:32:46.138Z,12.37
2019-02-08T11:33:46.145Z,12.23
2019-02-08T11:34:46.173Z,12.15
2019-02-08T11:35:46.177Z,12.23
2019-02-08T11:36:46.191Z,12.21
2019-02-08T11:38:07.231Z,12.19
2019-02-08T11:38:46.237Z,12.15
2019-02-08T11:39:46.242Z,12.21
2019-02-08T11:40:46.260Z,12.20
2019-02-08T11:41:46.281Z,12.09
2019-02-08T11:42:46.312Z,12.16
2019-02-08T11:44:07.325Z,12.13
2019-02-08T11:44:46.314Z,12.11
2019-02-08T11:45:46.332Z,12.23
2019-02-08T11:46:46.348Z,12.08
2019-02-08T11:47:46.364Z,12.24
2019-02-08T11:48:46.377Z,12.19
2019-02-08T11:50:07.407Z,12.23
2019-02-08T11:50:46.416Z,12.23
2019-02-08T11:51:46.432Z,12.39
2019-02-08T11:52:46.463Z,12.33
2019-02-08T11:53:46.465Z,12.34
2019-02-08T11:54:46.478Z,12.26
2019-02-08T11:56:07.507Z,12.31
2019-02-08T11:56:46.508Z,12.24
2019-02-08T11:57:46.534Z,12.19
2019-02-08T11:58:46.545Z,12.19
2019-02-08T11:59:46.556Z,12.08
2019-02-08T12:00:46.581Z,12.08
2019-02-08T12:02:07.609Z,11.99
2019-02-08T12:02:46.614Z,11.96
2019-02-08T12:03:46.628Z,12.19
2019-02-08T12:04:46.650Z,12.21
2019-02-08T12:05:46.657Z,12.15
2019-02-08T12:06:46.681Z,12.15
2019-02-08T12:08:07.706Z,12.24
2019-02-08T12:08:46.709Z,12.34
2019-02-08T12:09:46.728Z,12.26
2019-02-08T12:10:46.732Z,12.21
2019-02-08T12:11:46.748Z,12.19
2019-02-08T12:12:46.766Z,12.15
2019-02-08T12:14:07.803Z,12.13
2019-02-08T12:14:46.795Z,11.93
2019-02-08T12:15:46.819Z,11.96
2019-02-08T12:16:46.844Z,12.04
2019-02-08T12:17:46.854Z,11.93
2019-02-08T12:18:46.859Z,11.94
2019-02-08T12:20:07.909Z,11.90
2019-02-08T12:20:46.891Z,11.89
2019-02-08T12:21:46.916Z,11.86
2019-02-08T12:22:46.932Z,11.93
2019-02-08T12:23:46.946Z,11.72
2019-02-08T12:24:47.015Z,11.75
2019-02-08T12:26:07.983Z,11.75
2019-02-08T12:26:46.990Z,11.80
2019-02-08T12:27:47.012Z,11.74
2019-02-08T12:28:47.028Z,11.80
2019-02-08T12:29:47.038Z,11.78
2019-02-08T12:30:47.060Z,11.74
2019-02-08T12:32:08.084Z,11.75
2019-02-08T12:32:47.085Z,11.87
2019-02-08T12:33:47.110Z,11.96
2019-02-08T12:34:47.111Z,12.02
2019-02-08T12:35:47.129Z,11.97
2019-02-08T12:36:47.157Z,12.08
2019-02-08T12:38:08.181Z,12.21
2019-02-08T12:38:47.190Z,12.15
2019-02-08T12:39:47.205Z,12.20
2019-02-08T12:40:47.233Z,12.13
2019-02-08T12:41:47.224Z,12.27
2019-02-08T12:42:47.248Z,12.16
2019-02-08T12:44:08.269Z,12.13
2019-02-08T12:44:47.298Z,12.15
2019-02-08T12:45:47.289Z,12.29
2019-02-08T12:46:47.304Z,12.26
2019-02-08T12:47:47.320Z,12.13
2019-02-08T12:48:47.336Z,12.13
2019-02-08T12:50:08.368Z,12.19
2019-02-08T12:50:47.374Z,12.15
2019-02-08T12:51:47.390Z,12.08
2019-02-08T12:52:47.412Z,12.15
2019-02-08T12:53:47.419Z,11.99
2019-02-08T12:54:47.437Z,11.99
2019-02-08T12:56:08.467Z,11.97
2019-02-08T12:56:47.470Z,11.93
2019-02-08T12:57:47.520Z,11.96
2019-02-08T12:58:47.486Z,11.90
2019-02-08T12:59:47.522Z,11.85
2019-02-08T13:00:47.536Z,11.82
2019-02-08T13:02:08.558Z,11.89
2019-02-08T13:02:47.556Z,11.80
2019-02-08T13:03:47.599Z,11.77
2019-02-08T13:04:47.598Z,11.83
2019-02-08T13:05:47.612Z,11.80
2019-02-08T13:06:47.617Z,11.75
2019-02-08T13:08:08.641Z,11.77
2019-02-08T13:08:47.671Z,11.89
2019-02-08T13:09:47.728Z,12.02
2019-02-08T13:10:47.681Z,11.94
2019-02-08T13:11:47.702Z,11.94
2019-02-08T13:12:47.716Z,11.90
2019-02-08T13:14:08.742Z,11.97
2019-02-08T13:14:47.746Z,12.04
2019-02-08T13:15:47.773Z,11.99
2019-02-08T13:16:47.779Z,12.01
2019-02-08T13:17:47.833Z,12.06
2019-02-08T13:18:47.817Z,12.08
2019-02-08T13:20:08.842Z,12.06
2019-02-08T13:20:47.850Z,12.05
2019-02-08T13:21:47.858Z,11.97
2019-02-08T13:22:49.142Z,12.01
2019-02-08T13:23:48.009Z,12.01
2019-02-08T13:24:47.907Z,11.97
2019-02-08T13:26:08.946Z,11.83
2019-02-08T13:26:52.816Z,11.82
2019-02-08T13:27:47.952Z,11.83
2019-02-08T13:28:47.961Z,11.87
2019-02-08T13:29:47.975Z,11.93
2019-02-08T13:30:48.001Z,11.94
2019-02-08T13:32:09.018Z,11.80
2019-02-08T13:32:48.020Z,11.87
2019-02-08T13:33:48.045Z,11.80
2019-02-08T13:34:48.063Z,11.86
2019-02-08T13:35:48.095Z,11.72
2019-02-08T13:36:48.087Z,11.78
2019-02-08T13:38:09.119Z,11.75
2019-02-08T13:38:48.121Z,11.78
2019-02-08T13:39:48.181Z,11.75
2019-02-08T13:40:48.157Z,11.78
2019-02-08T13:41:48.222Z,11.83
2019-02-08T13:42:48.184Z,11.77
2019-02-08T13:44:09.210Z,11.75
2019-02-08T13:44:48.210Z,11.78
2019-02-08T13:45:48.240Z,11.70
2019-02-08T13:46:48.241Z,11.74
2019-02-08T13:47:48.296Z,11.70
2019-02-08T13:48:48.270Z,11.77
2019-02-08T13:50:09.320Z,11.72
2019-02-08T13:50:48.334Z,11.70
2019-02-08T13:51:48.321Z,11.74
2019-02-08T13:52:48.333Z,11.78
2019-02-08T13:53:48.344Z,11.74
2019-02-08T13:54:48.366Z,11.74
2019-02-08T13:56:09.391Z,11.77